Time;durP1;ratioP1;P1;durP2;ratioP2;P2;SDS_P1;SDS_P2;PMS_P1;PMS_P2;Temp;Humidity;BMP_temperature;BMP_pressure;BME280_temperature;BME280_humidity;BME280_pressure;Samples;Min_cycle;Max_cycle;Signal;HPM_P1;HPM_P2
2023/08/01 00:01:22;;;;;;;4.82;2.65;;;;;;;;;;5099242;28;20019;-74
2023/08/01 00:03:47;;;;;;;5.30;4.13;;;;;;;;;;5098692;28;20338;-74
2023/08/01 00:06:13;;;;;;;11.65;5.60;;;;;;;;;;5101830;28;20026;-74
2023/08/01 00:08:38;;;;;;;6.72;4.72;;;;;;;;;;5099840;28;20039;-74
2023/08/01 00:11:03;;;;;;;4.55;3.42;;;;;;;;;;5097797;28;20036;-74
2023/08/01 00:13:29;;;;;;;3.80;3.05;;;;;;;;;;5101668;28;20037;-75
2023/08/01 00:15:54;;;;;;;4.53;3.63;;;;;;;;;;5100101;28;20375;-76
2023/08/01 00:18:19;;;;;;;5.68;3.38;;;;;;;;;;5101453;28;20012;-75
2023/08/01 00:20:45;;;;;;;4.80;3.95;;;;;;;;;;5099033;28;20023;-73
2023/08/01 00:23:10;;;;;;;5.28;3.50;;;;;;;;;;5101607;28;20088;-76
2023/08/01 00:25:35;;;;;;;3.63;3.33;;;;;;;;;;5098826;28;20080;-75
2023/08/01 00:28:01;;;;;;;7.13;4.57;;;;;;;;;;5097532;28;20114;-74
2023/08/01 00:30:26;;;;;;;5.93;4.80;;;;;;;;;;5099652;28;20139;-74
2023/08/01 00:32:51;;;;;;;8.95;6.32;;;;;;;;;;5097953;28;20114;-74
2023/08/01 00:35:17;;;;;;;9.10;6.22;;;;;;;;;;5099488;28;20147;-74
2023/08/01 00:37:42;;;;;;;8.02;4.35;;;;;;;;;;5098189;28;20107;-74
2023/08/01 00:40:08;;;;;;;5.57;4.53;;;;;;;;;;5098521;28;20030;-75
2023/08/01 00:42:35;;;;;;;6.43;5.03;;;;;;;;;;5097836;27;20034;-77
2023/08/01 00:45:00;;;;;;;5.40;3.70;;;;;;;;;;5097324;28;20084;-75
2023/08/01 00:47:26;;;;;;;4.53;3.53;;;;;;;;;;5099287;28;20035;-74
2023/08/01 00:49:51;;;;;;;3.38;3.03;;;;;;;;;;5097090;28;20050;-74
2023/08/01 00:52:17;;;;;;;3.78;3.08;;;;;;;;;;5101032;28;20039;-74
2023/08/01 00:54:42;;;;;;;5.60;3.17;;;;;;;;;;5099005;28;20031;-74
2023/08/01 00:57:08;;;;;;;3.85;3.03;;;;;;;;;;5099171;28;20031;-74
2023/08/01 00:59:34;;;;;;;4.05;3.30;;;;;;;;;;5097505;28;20042;-76
2023/08/01 01:02:00;;;;;;;4.07;3.35;;;;;;;;;;5098354;28;20118;-73
2023/08/01 01:04:26;;;;;;;5.65;3.25;;;;;;;;;;5100501;28;20114;-76
2023/08/01 01:06:53;;;;;;;3.30;3.00;;;;;;;;;;5099136;28;20114;-73
2023/08/01 01:09:19;;;;;;;5.18;3.28;;;;;;;;;;5097826;28;20103;-75
2023/08/01 01:11:44;;;;;;;5.13;3.20;;;;;;;;;;5098667;28;20019;-73
2023/08/01 01:14:10;;;;;;;3.92;3.05;;;;;;;;;;5097877;27;20498;-74
2023/08/01 01:16:35;;;;;;;4.72;3.30;;;;;;;;;;5098167;28;20284;-73
2023/08/01 01:19:00;;;;;;;3.05;2.75;;;;;;;;;;5099649;28;20028;-74
2023/08/01 01:21:26;;;;;;;3.88;3.05;;;;;;;;;;5094535;28;20336;-74
2023/08/01 01:23:52;;;;;;;3.45;3.00;;;;;;;;;;5098642;28;20408;-74
2023/08/01 01:26:21;;;;;;;5.05;2.72;;;;;;;;;;5099965;28;20119;-73
2023/08/01 01:28:47;;;;;;;4.07;3.33;;;;;;;;;;5099630;28;20024;-74
2023/08/01 01:31:13;;;;;;;3.30;3.00;;;;;;;;;;5097740;28;20031;-73
2023/08/01 01:33:38;;;;;;;3.13;2.70;;;;;;;;;;5099528;28;20020;-76
2023/08/01 01:36:04;;;;;;;5.75;2.83;;;;;;;;;;5096219;28;20042;-74
2023/08/01 01:38:29;;;;;;;4.18;3.17;;;;;;;;;;5095150;28;20146;-75
2023/08/01 01:40:54;;;;;;;4.95;3.15;;;;;;;;;;5099014;28;20074;-74
2023/08/01 01:43:20;;;;;;;3.30;2.80;;;;;;;;;;5099638;27;20051;-74
2023/08/01 01:45:45;;;;;;;3.13;2.92;;;;;;;;;;5098357;28;20031;-73
2023/08/01 01:48:10;;;;;;;4.55;3.20;;;;;;;;;;5096906;28;20051;-73
2023/08/01 01:50:36;;;;;;;5.63;3.40;;;;;;;;;;5095425;28;20020;-73
2023/08/01 01:53:01;;;;;;;3.33;3.03;;;;;;;;;;5096639;28;20126;-73
2023/08/01 01:55:26;;;;;;;4.30;3.03;;;;;;;;;;5096717;28;20065;-73
2023/08/01 01:57:52;;;;;;;3.45;3.15;;;;;;;;;;5096713;28;20027;-73
2023/08/01 02:00:17;;;;;;;4.15;3.45;;;;;;;;;;5096599;28;20024;-74
2023/08/01 02:02:42;;;;;;;4.45;3.30;;;;;;;;;;5097431;28;20028;-74
2023/08/01 02:05:08;;;;;;;5.68;3.25;;;;;;;;;;5098411;28;20435;-72
2023/08/01 02:07:33;;;;;;;5.00;3.83;;;;;;;;;;5100891;28;20027;-75
2023/08/01 02:09:59;;;;;;;4.63;4.22;;;;;;;;;;5094331;28;20104;-73
2023/08/01 02:12:24;;;;;;;5.18;4.68;;;;;;;;;;5094646;28;20024;-73
2023/08/01 02:14:50;;;;;;;7.47;4.50;;;;;;;;;;5094366;28;20100;-73
2023/08/01 02:17:16;;;;;;;5.30;4.18;;;;;;;;;;5095928;28;20027;-73
2023/08/01 02:19:41;;;;;;;4.47;4.07;;;;;;;;;;5097170;28;20396;-73
2023/08/01 02:22:06;;;;;;;4.47;4.05;;;;;;;;;;5094200;28;20023;-73
2023/08/01 02:24:32;;;;;;;4.57;3.50;;;;;;;;;;5097677;28;20058;-73
2023/08/01 02:26:57;;;;;;;5.20;3.60;;;;;;;;;;5095207;28;20027;-75
2023/08/01 02:29:22;;;;;;;4.20;3.80;;;;;;;;;;5095069;28;20089;-73
2023/08/01 02:31:48;;;;;;;5.22;3.45;;;;;;;;;;5098557;28;20023;-74
2023/08/01 02:34:13;;;;;;;8.02;3.75;;;;;;;;;;5097988;28;20039;-73
2023/08/01 02:36:40;;;;;;;3.97;3.20;;;;;;;;;;5098936;28;20020;-75
2023/08/01 02:39:06;;;;;;;5.45;2.95;;;;;;;;;;5095932;28;20052;-73
2023/08/01 02:41:31;;;;;;;4.57;3.20;;;;;;;;;;5096943;28;20026;-75
2023/08/01 02:43:56;;;;;;;4.68;3.55;;;;;;;;;;5098334;28;20114;-73
2023/08/01 02:46:22;;;;;;;17.50;13.13;;;;;;;;;;5095630;28;20043;-72
2023/08/01 02:48:48;;;;;;;6.07;4.45;;;;;;;;;;5097132;28;20062;-73
2023/08/01 02:51:13;;;;;;;4.93;3.65;;;;;;;;;;5097183;28;20024;-72
2023/08/01 02:53:41;;;;;;;6.22;5.63;;;;;;;;;;5099031;28;20020;-73
2023/08/01 02:56:08;;;;;;;4.35;3.95;;;;;;;;;;5096416;28;20114;-76
2023/08/01 02:58:34;;;;;;;10.43;9.23;;;;;;;;;;5091701;28;20024;-73
2023/08/01 03:00:59;;;;;;;14.75;12.25;;;;;;;;;;5094269;28;20033;-74
2023/08/01 03:03:24;;;;;;;13.85;12.52;;;;;;;;;;5097851;28;20031;-73
2023/08/01 03:05:50;;;;;;;9.68;8.77;;;;;;;;;;5098065;28;20058;-73
2023/08/01 03:08:15;;;;;;;6.57;3.53;;;;;;;;;;5096687;28;20125;-72
2023/08/01 03:10:40;;;;;;;3.90;3.40;;;;;;;;;;5097193;28;20024;-74
2023/08/01 03:13:06;;;;;;;3.95;3.65;;;;;;;;;;5098525;28;20024;-73
2023/08/01 03:15:31;;;;;;;5.78;4.15;;;;;;;;;;5097102;28;20016;-75
2023/08/01 03:17:57;;;;;;;4.22;3.45;;;;;;;;;;5100990;28;20358;-72
2023/08/01 03:20:22;;;;;;;6.15;3.67;;;;;;;;;;5098139;28;20024;-72
2023/08/01 03:22:48;;;;;;;7.40;5.40;;;;;;;;;;5099695;28;20102;-72
2023/08/01 03:25:13;;;;;;;5.65;5.10;;;;;;;;;;5100665;28;20020;-72
2023/08/01 03:27:38;;;;;;;3.88;3.58;;;;;;;;;;5099391;28;20059;-72
2023/08/01 03:30:04;;;;;;;5.07;4.40;;;;;;;;;;5098928;28;20343;-71
2023/08/01 03:32:30;;;;;;;6.40;4.55;;;;;;;;;;5101001;28;20019;-72
2023/08/01 03:34:55;;;;;;;5.97;5.25;;;;;;;;;;5100103;28;20039;-75
2023/08/01 03:37:20;;;;;;;7.47;6.07;;;;;;;;;;5098534;28;20488;-72
2023/08/01 03:39:46;;;;;;;7.47;5.60;;;;;;;;;;5101000;28;20446;-71
2023/08/01 03:42:11;;;;;;;8.25;6.25;;;;;;;;;;5099033;28;20483;-74
2023/08/01 03:44:36;;;;;;;6.47;5.80;;;;;;;;;;5102544;28;20028;-72
2023/08/01 03:47:02;;;;;;;8.05;6.40;;;;;;;;;;5097701;28;20027;-72
2023/08/01 03:49:27;;;;;;;8.05;6.05;;;;;;;;;;5099519;28;20054;-72
2023/08/01 03:51:52;;;;;;;8.07;5.53;;;;;;;;;;5098560;28;20015;-73
2023/08/01 03:54:18;;;;;;;7.60;5.72;;;;;;;;;;5101026;28;20092;-72
2023/08/01 03:56:44;;;;;;;6.13;5.53;;;;;;;;;;5097108;28;20316;-72
2023/08/01 03:59:13;;;;;;;6.63;5.03;;;;;;;;;;5099742;28;20020;-72
2023/08/01 04:01:38;;;;;;;6.57;4.67;;;;;;;;;;5101235;28;20430;-72
2023/08/01 04:04:03;;;;;;;6.22;4.47;;;;;;;;;;5094395;28;20263;-72
2023/08/01 04:06:29;;;;;;;5.72;5.13;;;;;;;;;;5098229;28;20027;-74
2023/08/01 04:08:56;;;;;;;7.35;5.07;;;;;;;;;;5097691;28;20031;-73
2023/08/01 04:11:21;;;;;;;7.20;5.63;;;;;;;;;;5098102;28;20028;-72
2023/08/01 04:13:47;;;;;;;6.13;5.07;;;;;;;;;;5102003;28;20020;-71
2023/08/01 04:16:12;;;;;;;5.70;5.13;;;;;;;;;;5097773;28;20201;-72
2023/08/01 04:18:37;;;;;;;5.75;5.15;;;;;;;;;;5099795;27;20027;-74
2023/08/01 04:21:03;;;;;;;5.72;4.65;;;;;;;;;;5100210;28;20020;-72
2023/08/01 04:23:28;;;;;;;10.40;6.20;;;;;;;;;;5096683;28;20024;-72
2023/08/01 04:25:53;;;;;;;8.27;5.20;;;;;;;;;;5099182;28;20035;-73
2023/08/01 04:28:19;;;;;;;6.72;5.30;;;;;;;;;;5102184;28;20012;-73
2023/08/01 04:30:48;;;;;;;5.43;4.93;;;;;;;;;;5099338;28;21139;-74
2023/08/01 04:33:13;;;;;;;5.53;4.97;;;;;;;;;;5096757;28;20091;-72
2023/08/01 04:35:39;;;;;;;6.07;4.72;;;;;;;;;;5098309;28;20110;-72
2023/08/01 04:38:04;;;;;;;5.45;4.57;;;;;;;;;;5098053;28;20115;-74
2023/08/01 04:40:29;;;;;;;8.38;4.55;;;;;;;;;;5100549;28;20070;-72
2023/08/01 04:42:55;;;;;;;6.00;4.45;;;;;;;;;;5099012;28;20035;-72
2023/08/01 04:45:20;;;;;;;7.60;5.10;;;;;;;;;;5099012;28;20019;-73
2023/08/01 04:47:45;;;;;;;5.53;5.03;;;;;;;;;;5096359;28;20035;-73
2023/08/01 04:50:11;;;;;;;11.27;5.43;;;;;;;;;;5101094;28;20027;-72
2023/08/01 04:52:37;;;;;;;5.95;4.82;;;;;;;;;;5098652;27;20481;-72
2023/08/01 04:55:03;;;;;;;6.07;5.40;;;;;;;;;;5100363;28;20027;-72
2023/08/01 04:57:28;;;;;;;6.10;5.50;;;;;;;;;;5098176;28;20051;-72
2023/08/01 04:59:53;;;;;;;7.18;5.75;;;;;;;;;;5097209;28;20098;-72
2023/08/01 05:02:19;;;;;;;6.10;5.47;;;;;;;;;;5096793;28;20110;-74
2023/08/01 05:04:44;;;;;;;6.40;4.60;;;;;;;;;;5099274;28;20186;-73
2023/08/01 05:07:09;;;;;;;6.00;4.40;;;;;;;;;;5100169;28;20112;-72
2023/08/01 05:09:35;;;;;;;6.18;4.95;;;;;;;;;;5098279;28;20045;-73
2023/08/01 05:12:00;;;;;;;5.05;4.10;;;;;;;;;;5097989;28;20027;-73
2023/08/01 05:14:25;;;;;;;6.50;4.07;;;;;;;;;;5095294;28;20030;-73
2023/08/01 05:16:51;;;;;;;6.40;4.28;;;;;;;;;;5095563;28;20036;-72
2023/08/01 05:19:16;;;;;;;5.30;3.95;;;;;;;;;;5094970;28;20045;-73
2023/08/01 05:21:41;;;;;;;6.50;3.90;;;;;;;;;;5099239;28;20024;-72
2023/08/01 05:24:07;;;;;;;8.73;4.30;;;;;;;;;;5097443;28;20037;-72
2023/08/01 05:26:32;;;;;;;4.30;3.90;;;;;;;;;;5098481;28;20142;-73
2023/08/01 05:28:57;;;;;;;6.03;4.18;;;;;;;;;;5094503;28;20129;-74
2023/08/01 05:31:23;;;;;;;4.55;3.63;;;;;;;;;;5096812;28;20066;-72
2023/08/01 05:33:48;;;;;;;5.30;3.40;;;;;;;;;;5096487;28;20529;-73
2023/08/01 05:36:13;;;;;;;4.43;3.47;;;;;;;;;;5099295;28;20024;-72
2023/08/01 05:38:39;;;;;;;6.20;3.72;;;;;;;;;;5096476;28;20103;-71
2023/08/01 05:41:04;;;;;;;4.07;3.63;;;;;;;;;;5099866;28;20136;-72
2023/08/01 05:43:29;;;;;;;3.35;3.05;;;;;;;;;;5099328;28;20343;-73
2023/08/01 05:45:55;;;;;;;3.47;3.17;;;;;;;;;;5096702;28;20123;-73
2023/08/01 05:48:20;;;;;;;3.53;2.97;;;;;;;;;;5096139;28;20035;-71
2023/08/01 05:50:46;;;;;;;6.65;3.25;;;;;;;;;;5099257;28;20024;-75
2023/08/01 05:53:11;;;;;;;4.60;3.03;;;;;;;;;;5095910;28;20042;-73
2023/08/01 05:55:36;;;;;;;4.80;3.30;;;;;;;;;;5098482;28;20055;-73
2023/08/01 05:58:02;;;;;;;5.72;3.05;;;;;;;;;;5096465;28;20024;-74
2023/08/01 06:00:27;;;;;;;4.50;3.15;;;;;;;;;;5095861;28;20034;-72
2023/08/01 06:02:52;;;;;;;3.92;2.70;;;;;;;;;;5095722;28;20027;-72
2023/08/01 06:05:18;;;;;;;6.25;3.15;;;;;;;;;;5099642;28;20292;-71
2023/08/01 06:07:43;;;;;;;5.05;2.80;;;;;;;;;;5099069;28;20031;-72
2023/08/01 06:10:09;;;;;;;8.52;3.13;;;;;;;;;;5098102;28;20100;-71
2023/08/01 06:12:34;;;;;;;3.80;2.60;;;;;;;;;;5098913;28;20024;-72
2023/08/01 06:15:00;;;;;;;8.70;3.03;;;;;;;;;;5100901;28;20023;-74
2023/08/01 06:17:25;;;;;;;3.42;2.80;;;;;;;;;;5096938;28;20028;-73
2023/08/01 06:19:52;;;;;;;6.03;3.00;;;;;;;;;;5097300;28;20447;-72
2023/08/01 06:22:17;;;;;;;4.15;2.95;;;;;;;;;;5096142;28;20101;-72
2023/08/01 06:24:42;;;;;;;5.15;3.15;;;;;;;;;;5097614;28;20130;-72
2023/08/01 06:27:08;;;;;;;3.13;2.80;;;;;;;;;;5097321;28;20067;-72
2023/08/01 06:29:33;;;;;;;5.40;2.95;;;;;;;;;;5095704;28;20023;-73
2023/08/01 06:31:59;;;;;;;7.13;3.63;;;;;;;;;;5098321;28;20024;-73
2023/08/01 06:34:24;;;;;;;4.20;3.22;;;;;;;;;;5098106;28;20019;-74
2023/08/01 06:36:50;;;;;;;5.13;3.35;;;;;;;;;;5099214;28;20041;-74
2023/08/01 06:39:15;;;;;;;5.75;3.67;;;;;;;;;;5099085;28;20051;-72
2023/08/01 06:41:41;;;;;;;6.28;3.08;;;;;;;;;;5094861;28;20043;-72
2023/08/01 06:44:06;;;;;;;4.60;2.95;;;;;;;;;;5096847;28;20027;-72
2023/08/01 06:46:31;;;;;;;5.50;3.28;;;;;;;;;;5098766;28;20028;-72
2023/08/01 06:48:57;;;;;;;5.15;2.97;;;;;;;;;;5101038;28;20373;-72
2023/08/01 06:51:22;;;;;;;7.30;3.42;;;;;;;;;;5103805;28;20027;-72
2023/08/01 06:53:47;;;;;;;4.10;3.17;;;;;;;;;;5098333;28;20069;-72
2023/08/01 06:56:13;;;;;;;3.58;2.60;;;;;;;;;;5103098;28;20055;-75
2023/08/01 06:58:38;;;;;;;6.25;2.60;;;;;;;;;;5103449;28;20027;-73
2023/08/01 07:01:03;;;;;;;5.20;2.85;;;;;;;;;;5101195;28;20031;-71
2023/08/01 07:03:29;;;;;;;3.22;2.85;;;;;;;;;;5101513;28;20470;-74
2023/08/01 07:05:54;;;;;;;3.17;2.83;;;;;;;;;;5099785;28;20074;-73
2023/08/01 07:08:21;;;;;;;4.10;2.55;;;;;;;;;;5101363;28;20024;-72
2023/08/01 07:10:46;;;;;;;2.63;2.42;;;;;;;;;;5099496;28;20016;-72
2023/08/01 07:13:12;;;;;;;3.15;2.85;;;;;;;;;;5101188;28;20031;-73
2023/08/01 07:15:37;;;;;;;5.30;2.90;;;;;;;;;;5099927;28;20419;-72
2023/08/01 07:18:03;;;;;;;3.90;2.97;;;;;;;;;;5099211;28;20028;-72
2023/08/01 07:20:28;;;;;;;3.08;2.65;;;;;;;;;;5099126;28;20058;-74
2023/08/01 07:22:53;;;;;;;3.83;2.70;;;;;;;;;;5097978;28;20051;-72
2023/08/01 07:25:22;;;;;;;5.25;2.55;;;;;;;;;;5097689;28;20343;-72
2023/08/01 07:27:47;;;;;;;4.07;2.80;;;;;;;;;;5098623;28;20483;-72
2023/08/01 07:30:13;;;;;;;3.75;2.50;;;;;;;;;;5100228;28;20031;-73
2023/08/01 07:32:38;;;;;;;3.20;2.50;;;;;;;;;;5101806;28;20080;-75
2023/08/01 07:35:06;;;;;;;3.00;2.17;;;;;;;;;;5097564;28;20350;-72
2023/08/01 07:37:35;;;;;;;5.53;2.92;;;;;;;;;;5099758;28;20028;-72
2023/08/01 07:40:00;;;;;;;5.57;2.70;;;;;;;;;;5101532;28;20067;-76
2023/08/01 07:42:25;;;;;;;3.40;2.50;;;;;;;;;;5097632;28;20023;-72
2023/08/01 07:44:51;;;;;;;3.75;2.67;;;;;;;;;;5101855;28;20027;-72
2023/08/01 07:47:16;;;;;;;4.30;3.10;;;;;;;;;;5099225;28;20496;-73
2023/08/01 07:49:41;;;;;;;4.72;3.05;;;;;;;;;;5100204;28;20531;-72
2023/08/01 07:52:07;;;;;;;3.70;2.65;;;;;;;;;;5100040;28;20026;-71
2023/08/01 07:54:32;;;;;;;3.67;2.90;;;;;;;;;;5100692;28;20138;-72
2023/08/01 07:56:58;;;;;;;3.63;2.45;;;;;;;;;;5101741;28;20031;-75
2023/08/01 07:59:23;;;;;;;6.28;2.75;;;;;;;;;;5100448;27;20027;-73
2023/08/01 08:01:48;;;;;;;3.03;2.40;;;;;;;;;;5099829;27;20024;-72
2023/08/01 08:04:14;;;;;;;3.25;2.50;;;;;;;;;;5102312;28;20052;-75
2023/08/01 08:06:40;;;;;;;3.45;2.40;;;;;;;;;;5098275;28;20028;-72
2023/08/01 08:09:05;;;;;;;3.65;2.60;;;;;;;;;;5094710;28;20028;-72
2023/08/01 08:11:30;;;;;;;2.92;2.72;;;;;;;;;;5101758;28;20027;-71
2023/08/01 08:13:56;;;;;;;2.65;2.45;;;;;;;;;;5100935;28;20031;-72
2023/08/01 08:16:21;;;;;;;9.77;2.75;;;;;;;;;;5101071;28;20019;-71
2023/08/01 08:18:46;;;;;;;4.00;2.55;;;;;;;;;;5100632;28;20023;-73
2023/08/01 08:21:12;;;;;;;5.50;2.60;;;;;;;;;;5099594;28;20046;-76
2023/08/01 08:23:38;;;;;;;3.20;2.60;;;;;;;;;;5099248;28;20024;-73
2023/08/01 08:26:04;;;;;;;6.97;2.33;;;;;;;;;;5101111;28;20019;-74
2023/08/01 08:28:30;;;;;;;3.05;2.45;;;;;;;;;;5101684;28;20028;-72
2023/08/01 08:30:56;;;;;;;3.55;2.28;;;;;;;;;;5100706;28;20063;-73
2023/08/01 08:33:21;;;;;;;4.13;2.50;;;;;;;;;;5100864;28;20066;-73
2023/08/01 08:35:47;;;;;;;3.22;2.33;;;;;;;;;;5098161;28;20050;-75
2023/08/01 08:38:12;;;;;;;2.40;1.88;;;;;;;;;;5101054;28;20066;-75
2023/08/01 08:40:41;;;;;;;2.60;2.30;;;;;;;;;;5098502;28;20334;-75
2023/08/01 08:43:06;;;;;;;2.28;2.08;;;;;;;;;;5096404;28;20031;-72
2023/08/01 08:45:35;;;;;;;3.65;1.90;;;;;;;;;;5102429;28;20032;-75
2023/08/01 08:48:01;;;;;;;3.55;2.10;;;;;;;;;;5101012;28;20032;-73
2023/08/01 08:50:29;;;;;;;6.18;2.30;;;;;;;;;;5100504;28;20103;-75
2023/08/01 08:52:54;;;;;;;2.20;2.00;;;;;;;;;;5099205;28;20023;-74
2023/08/01 08:55:22;;;;;;;4.43;2.30;;;;;;;;;;5100861;28;20385;-72
2023/08/01 08:57:50;;;;;;;3.50;2.15;;;;;;;;;;5097874;28;20438;-73
2023/08/01 09:00:17;;;;;;;2.90;1.77;;;;;;;;;;5099133;28;20076;-74
2023/08/01 09:02:42;;;;;;;3.38;2.20;;;;;;;;;;5097810;27;20024;-74
2023/08/01 09:05:07;;;;;;;2.45;1.95;;;;;;;;;;5098554;28;20151;-72
2023/08/01 09:07:35;;;;;;;2.42;2.05;;;;;;;;;;5099841;28;20084;-76
2023/08/01 09:10:00;;;;;;;4.20;2.20;;;;;;;;;;5095608;28;20111;-74
2023/08/01 09:12:26;;;;;;;2.90;2.00;;;;;;;;;;5097745;28;20136;-72
2023/08/01 09:14:52;;;;;;;2.65;2.10;;;;;;;;;;5098103;28;20091;-73
2023/08/01 09:17:18;;;;;;;2.10;2.00;;;;;;;;;;5100604;28;20027;-72
2023/08/01 09:19:44;;;;;;;2.95;1.75;;;;;;;;;;5099924;28;20063;-73
2023/08/01 09:22:13;;;;;;;4.57;2.00;;;;;;;;;;5099088;28;20058;-74
2023/08/01 09:24:38;;;;;;;3.78;2.13;;;;;;;;;;5101105;28;20455;-74
2023/08/01 09:27:04;;;;;;;1.95;1.85;;;;;;;;;;5101784;28;20752;-75
2023/08/01 09:29:31;;;;;;;2.78;2.00;;;;;;;;;;5099630;28;20058;-75
2023/08/01 09:31:57;;;;;;;4.35;2.08;;;;;;;;;;5098367;28;20024;-73
2023/08/01 09:34:23;;;;;;;3.90;2.20;;;;;;;;;;5100195;28;20023;-73
2023/08/01 09:36:49;;;;;;;2.75;1.67;;;;;;;;;;5098529;28;20012;-76
2023/08/01 09:39:19;;;;;;;2.95;2.20;;;;;;;;;;5098149;28;20048;-74
2023/08/01 09:41:44;;;;;;;2.47;2.10;;;;;;;;;;5099730;28;20043;-74
2023/08/01 09:44:15;;;;;;;2.60;2.15;;;;;;;;;;5098434;28;20019;-73
2023/08/01 09:46:42;;;;;;;2.30;2.10;;;;;;;;;;5098237;28;20032;-74
2023/08/01 09:49:10;;;;;;;2.20;2.00;;;;;;;;;;5098192;28;20389;-74
2023/08/01 09:51:46;;;;;;;2.47;2.05;;;;;;;;;;5099885;28;20029;-74
2023/08/01 09:54:11;;;;;;;3.05;2.45;;;;;;;;;;5097967;28;20054;-73
2023/08/01 09:56:37;;;;;;;3.40;1.95;;;;;;;;;;5096665;28;20171;-78
2023/08/01 09:59:03;;;;;;;2.53;2.10;;;;;;;;;;5099425;28;20018;-76
2023/08/01 10:01:32;;;;;;;2.42;2.10;;;;;;;;;;5099080;28;20023;-75
2023/08/01 10:03:57;;;;;;;;;;;;;;;;;;5099486;28;20039;-74
2023/08/01 10:06:24;;;;;;;3.87;2.23;;;;;;;;;;5094831;28;19923;-73
2023/08/01 10:08:50;;;;;;;2.20;1.85;;;;;;;;;;5100781;28;20027;-74
2023/08/01 10:11:16;;;;;;;2.30;2.10;;;;;;;;;;5100144;28;20035;-73
2023/08/01 10:13:43;;;;;;;2.78;2.50;;;;;;;;;;5097120;28;20119;-74
2023/08/01 10:16:08;;;;;;;2.28;2.00;;;;;;;;;;5100953;28;20069;-74
2023/08/01 10:18:34;;;;;;;2.85;2.22;;;;;;;;;;5099382;28;20024;-76
2023/08/01 10:21:00;;;;;;;3.17;2.25;;;;;;;;;;5099438;28;20053;-76
2023/08/01 10:23:26;;;;;;;2.88;1.77;;;;;;;;;;5102127;28;20027;-72
2023/08/01 10:25:51;;;;;;;2.72;2.30;;;;;;;;;;5099166;28;20027;-75
2023/08/01 10:28:17;;;;;;;3.25;2.20;;;;;;;;;;5101658;28;20068;-72
2023/08/01 10:30:42;;;;;;;2.20;2.00;;;;;;;;;;5101998;28;20050;-75
2023/08/01 10:33:12;;;;;;;2.28;2.08;;;;;;;;;;5104387;28;20103;-74
2023/08/01 10:35:38;;;;;;;2.30;2.10;;;;;;;;;;5098461;28;20115;-73
2023/08/01 10:38:05;;;;;;;2.17;1.98;;;;;;;;;;5102183;28;20093;-76
2023/08/01 10:40:41;;;;;;;2.47;1.90;;;;;;;;;;5102182;28;20069;-73
2023/08/01 10:43:06;;;;;;;3.08;2.10;;;;;;;;;;5100532;28;20032;-75
2023/08/01 10:45:32;;;;;;;2.65;2.08;;;;;;;;;;5102340;28;20042;-73
2023/08/01 10:48:10;;;;;;;2.25;2.05;;;;;;;;;;5103144;28;20047;-73
2023/08/01 10:50:35;;;;;;;2.28;2.08;;;;;;;;;;5102645;28;20450;-73
2023/08/01 10:53:05;;;;;;;3.03;2.00;;;;;;;;;;5104103;28;20031;-73
2023/08/01 10:55:43;;;;;;;2.10;2.00;;;;;;;;;;5101412;28;20023;-74
2023/08/01 10:58:09;;;;;;;2.35;2.13;;;;;;;;;;5099929;28;20046;-75
2023/08/01 11:00:34;;;;;;;3.17;2.00;;;;;;;;;;5101023;28;20015;-76
2023/08/01 11:03:00;;;;;;;3.08;2.08;;;;;;;;;;5101432;28;20023;-75
2023/08/01 11:05:27;;;;;;;2.30;2.00;;;;;;;;;;5102346;28;20024;-75
2023/08/01 11:07:57;;;;;;;2.28;1.90;;;;;;;;;;5100787;28;20038;-73
2023/08/01 11:10:23;;;;;;;2.30;1.88;;;;;;;;;;5101032;28;20035;-74
2023/08/01 11:12:49;;;;;;;2.00;1.83;;;;;;;;;;5100899;28;20023;-75
2023/08/01 11:15:14;;;;;;;2.40;2.20;;;;;;;;;;5100378;28;20038;-78
2023/08/01 11:17:41;;;;;;;2.25;1.98;;;;;;;;;;5102435;28;20024;-76
2023/08/01 11:20:08;;;;;;;2.13;1.92;;;;;;;;;;5103971;28;20069;-73
2023/08/01 11:22:33;;;;;;;4.88;2.40;;;;;;;;;;5102003;28;20031;-73
2023/08/01 11:24:59;;;;;;;2.60;2.08;;;;;;;;;;5099836;28;20028;-74
2023/08/01 11:27:25;;;;;;;2.65;2.17;;;;;;;;;;5100678;28;20073;-73
2023/08/01 11:29:51;;;;;;;2.60;2.38;;;;;;;;;;5098414;28;20038;-77
2023/08/01 11:32:16;;;;;;;2.33;2.13;;;;;;;;;;5101729;28;20328;-74
2023/08/01 11:34:47;;;;;;;2.00;1.85;;;;;;;;;;5100852;28;20023;-74
2023/08/01 11:37:13;;;;;;;2.30;2.10;;;;;;;;;;5100796;28;20050;-75
2023/08/01 11:39:39;;;;;;;2.67;2.22;;;;;;;;;;5100708;28;20043;-74
2023/08/01 11:42:04;;;;;;;2.30;2.10;;;;;;;;;;5097596;28;20076;-74
2023/08/01 11:44:30;;;;;;;2.30;2.10;;;;;;;;;;5101984;28;20350;-74
2023/08/01 11:46:55;;;;;;;3.05;2.05;;;;;;;;;;5099383;28;20162;-74
2023/08/01 11:49:21;;;;;;;2.03;1.92;;;;;;;;;;5100919;28;20166;-76
2023/08/01 11:51:46;;;;;;;2.47;2.08;;;;;;;;;;5098672;28;20042;-75
2023/08/01 11:54:13;;;;;;;3.10;2.40;;;;;;;;;;5100581;28;20047;-73
2023/08/01 11:56:39;;;;;;;3.22;2.10;;;;;;;;;;5100461;28;20032;-73
2023/08/01 11:59:11;;;;;;;5.40;2.42;;;;;;;;;;5100880;28;20027;-74
2023/08/01 12:01:40;;;;;;;2.53;1.90;;;;;;;;;;5100951;28;20031;-74
2023/08/01 12:04:05;;;;;;;1.80;1.70;;;;;;;;;;5098326;27;20023;-73
2023/08/01 12:06:31;;;;;;;2.22;2.03;;;;;;;;;;5100389;27;20038;-73
2023/08/01 12:09:05;;;;;;;2.50;1.88;;;;;;;;;;5101439;27;20031;-77
2023/08/01 12:11:30;;;;;;;2.35;2.05;;;;;;;;;;5100986;28;20453;-76
2023/08/01 12:14:02;;;;;;;3.35;2.08;;;;;;;;;;5101868;28;20034;-73
2023/08/01 12:16:28;;;;;;;2.08;1.90;;;;;;;;;;5102300;28;20039;-74
2023/08/01 12:18:53;;;;;;;2.20;2.00;;;;;;;;;;5100005;28;20027;-73
2023/08/01 12:21:19;;;;;;;2.40;2.20;;;;;;;;;;5099871;27;20028;-77
2023/08/01 12:23:44;;;;;;;2.17;1.98;;;;;;;;;;5099243;28;20747;-76
2023/08/01 12:26:09;;;;;;;2.78;2.20;;;;;;;;;;5101835;28;20024;-74
2023/08/01 12:28:35;;;;;;;2.30;2.10;;;;;;;;;;5102507;28;20038;-75
2023/08/01 12:31:00;;;;;;;2.33;2.13;;;;;;;;;;5100552;28;20016;-73
2023/08/01 12:33:26;;;;;;;2.97;2.28;;;;;;;;;;5101770;27;20140;-73
2023/08/01 12:35:51;;;;;;;2.35;2.15;;;;;;;;;;5099314;28;20093;-73
2023/08/01 12:38:16;;;;;;;2.65;2.08;;;;;;;;;;5099908;28;20482;-73
2023/08/01 12:40:42;;;;;;;3.22;2.47;;;;;;;;;;5096828;27;20404;-74
2023/08/01 12:43:07;;;;;;;3.55;2.30;;;;;;;;;;5097654;28;20526;-75
2023/08/01 12:45:32;;;;;;;2.22;2.03;;;;;;;;;;5098777;28;20023;-73
2023/08/01 12:47:58;;;;;;;2.13;1.92;;;;;;;;;;5099568;28;20148;-75
2023/08/01 12:50:23;;;;;;;2.10;2.00;;;;;;;;;;5099001;28;20023;-74
2023/08/01 12:52:49;;;;;;;1.98;1.80;;;;;;;;;;5099399;28;20113;-76
2023/08/01 12:55:14;;;;;;;4.78;2.33;;;;;;;;;;5097929;28;20055;-75
2023/08/01 12:57:39;;;;;;;2.33;1.85;;;;;;;;;;5098576;28;20044;-74
2023/08/01 13:00:05;;;;;;;2.35;1.70;;;;;;;;;;5098770;28;20038;-73
2023/08/01 13:02:30;;;;;;;2.65;2.10;;;;;;;;;;5095121;28;20023;-73
2023/08/01 13:04:56;;;;;;;2.25;2.05;;;;;;;;;;5097662;28;20036;-74
2023/08/01 13:07:21;;;;;;;3.08;2.40;;;;;;;;;;5096892;28;20034;-74
2023/08/01 13:09:46;;;;;;;2.45;2.25;;;;;;;;;;5101143;28;20443;-74
2023/08/01 13:12:12;;;;;;;2.50;2.30;;;;;;;;;;5098909;28;20118;-74
2023/08/01 13:14:37;;;;;;;2.40;1.90;;;;;;;;;;5098643;28;20027;-74
2023/08/01 13:17:02;;;;;;;3.55;2.20;;;;;;;;;;5099854;28;20043;-74
2023/08/01 13:19:28;;;;;;;2.20;2.00;;;;;;;;;;5100708;28;20458;-75
2023/08/01 13:21:53;;;;;;;2.50;2.03;;;;;;;;;;5099687;28;20027;-74
2023/08/01 13:24:19;;;;;;;2.40;2.20;;;;;;;;;;5097565;28;20040;-73
2023/08/01 13:26:44;;;;;;;2.10;2.00;;;;;;;;;;5100570;28;20027;-73
2023/08/01 13:29:09;;;;;;;2.83;1.90;;;;;;;;;;5100523;28;20038;-74
2023/08/01 13:31:35;;;;;;;2.50;2.30;;;;;;;;;;5099775;28;20085;-77
2023/08/01 13:34:00;;;;;;;4.15;2.22;;;;;;;;;;5100051;28;20033;-74
2023/08/01 13:36:25;;;;;;;1.90;1.80;;;;;;;;;;5096281;28;20104;-74
2023/08/01 13:38:51;;;;;;;3.20;2.35;;;;;;;;;;5099092;27;20160;-75
2023/08/01 13:41:16;;;;;;;2.38;2.20;;;;;;;;;;5097431;28;20038;-74
2023/08/01 13:43:42;;;;;;;1.92;1.83;;;;;;;;;;5100713;28;20032;-75
2023/08/01 13:46:14;;;;;;;2.28;2.08;;;;;;;;;;5098828;28;20035;-74
2023/08/01 13:48:40;;;;;;;2.30;2.10;;;;;;;;;;5097760;28;20039;-74
2023/08/01 13:51:06;;;;;;;3.83;1.90;;;;;;;;;;5096102;28;20027;-73
2023/08/01 13:53:31;;;;;;;2.47;2.28;;;;;;;;;;5096612;28;20034;-73
2023/08/01 13:55:57;;;;;;;2.42;1.95;;;;;;;;;;5098524;28;20065;-75
2023/08/01 13:58:22;;;;;;;2.38;2.17;;;;;;;;;;5097214;28;20715;-76
2023/08/01 14:00:47;;;;;;;2.70;2.10;;;;;;;;;;5096841;28;20027;-75
2023/08/01 14:03:12;;;;;;;4.70;2.10;;;;;;;;;;5097972;28;20442;-77
2023/08/01 14:05:38;;;;;;;2.22;2.03;;;;;;;;;;5099441;28;20553;-73
2023/08/01 14:08:03;;;;;;;2.75;2.22;;;;;;;;;;5099328;28;20046;-75
2023/08/01 14:10:29;;;;;;;3.67;2.20;;;;;;;;;;5100309;28;20031;-72
2023/08/01 14:12:54;;;;;;;1.92;1.83;;;;;;;;;;5095754;28;20024;-74
2023/08/01 14:15:19;;;;;;;2.15;2.05;;;;;;;;;;5096733;28;20023;-73
2023/08/01 14:17:45;;;;;;;2.53;2.20;;;;;;;;;;5098834;28;20024;-73
2023/08/01 14:20:10;;;;;;;2.90;2.35;;;;;;;;;;5099048;28;20117;-73
2023/08/01 14:22:36;;;;;;;2.35;2.10;;;;;;;;;;5098815;28;20030;-76
2023/08/01 14:25:01;;;;;;;2.00;1.90;;;;;;;;;;5097019;28;20035;-74
2023/08/01 14:27:27;;;;;;;2.20;2.03;;;;;;;;;;5096691;28;20108;-74
2023/08/01 14:29:52;;;;;;;2.42;2.22;;;;;;;;;;5097701;28;20461;-75
2023/08/01 14:32:18;;;;;;;2.53;2.28;;;;;;;;;;5098517;28;20035;-74
2023/08/01 14:34:43;;;;;;;2.50;2.30;;;;;;;;;;5096925;28;20035;-74